Time;durP1;ratioP1;P1;durP2;ratioP2;P2;SDS_P1;SDS_P2;PMS_P1;PMS_P2;Temp;Humidity;BMP_temperature;BMP_pressure;BME280_temperature;BME280_humidity;BME280_pressure;Samples;Min_cycle;Max_cycle;Signal;HPM_P1;HPM_P2
2023/03/10 00:00:34;;;;;;;3.67;2.60;;;;;;;;;;5096471;28;20067;-71
2023/03/10 00:03:20;;;;;;;2.75;2.33;;;;;;;;;;5096231;28;20031;-69
2023/03/10 00:06:06;;;;;;;3.30;2.45;;;;;;;;;;5095754;28;20044;-70
2023/03/10 00:08:52;;;;;;;4.18;2.70;;;;;;;;;;5095564;28;20081;-71
2023/03/10 00:11:38;;;;;;;3.15;2.67;;;;;;;;;;5095119;28;20085;-70
2023/03/10 00:14:23;;;;;;;3.13;2.55;;;;;;;;;;5095817;28;20380;-70
2023/03/10 00:17:09;;;;;;;2.95;2.38;;;;;;;;;;5095935;28;20024;-71
2023/03/10 00:19:54;;;;;;;3.40;2.67;;;;;;;;;;5096500;28;20082;-71
2023/03/10 00:22:43;;;;;;;4.00;2.50;;;;;;;;;;5095999;28;20125;-70
2023/03/10 00:25:29;;;;;;;4.50;2.50;;;;;;;;;;5080676;28;20439;-69
2023/03/10 00:28:14;;;;;;;3.47;2.60;;;;;;;;;;5095787;28;20090;-71
2023/03/10 00:31:01;;;;;;;3.20;2.50;;;;;;;;;;5095942;28;20024;-70
2023/03/10 00:33:47;;;;;;;3.15;2.60;;;;;;;;;;5080415;28;20099;-71
2023/03/10 00:36:33;;;;;;;6.95;3.25;;;;;;;;;;5095416;28;20022;-70
2023/03/10 00:39:18;;;;;;;3.90;2.78;;;;;;;;;;5095136;28;20024;-70
2023/03/10 00:42:04;;;;;;;4.13;2.80;;;;;;;;;;5097334;28;20016;-72
2023/03/10 00:44:50;;;;;;;3.50;2.90;;;;;;;;;;5095751;28;20030;-71
2023/03/10 00:47:35;;;;;;;4.18;3.03;;;;;;;;;;5096208;28;20016;-71
2023/03/10 00:50:21;;;;;;;4.95;3.00;;;;;;;;;;5094809;28;20028;-71
2023/03/10 00:53:07;;;;;;;4.78;3.03;;;;;;;;;;5095792;28;20031;-71
2023/03/10 00:55:56;;;;;;;5.72;3.20;;;;;;;;;;5094958;28;20099;-71
2023/03/10 00:58:42;;;;;;;4.50;2.88;;;;;;;;;;5080168;28;20013;-70
2023/03/10 01:01:34;;;;;;;4.45;3.10;;;;;;;;;;5094925;28;20023;-71
2023/03/10 01:04:20;;;;;;;5.60;3.40;;;;;;;;;;5094497;28;20047;-70
2023/03/10 01:07:05;;;;;;;3.85;3.10;;;;;;;;;;5095504;28;20040;-71
2023/03/10 01:09:51;;;;;;;5.18;3.25;;;;;;;;;;5080819;28;20124;-70
2023/03/10 01:12:37;;;;;;;4.03;3.28;;;;;;;;;;5094407;28;20020;-71
2023/03/10 01:15:22;;;;;;;4.18;3.15;;;;;;;;;;5094413;28;20024;-70
2023/03/10 01:18:08;;;;;;;7.00;3.30;;;;;;;;;;5094083;28;20016;-72
2023/03/10 01:20:54;;;;;;;5.90;3.20;;;;;;;;;;5094393;28;20032;-70
2023/03/10 01:23:39;;;;;;;5.93;3.05;;;;;;;;;;5093632;28;20031;-71
2023/03/10 01:26:25;;;;;;;4.22;3.25;;;;;;;;;;5093923;28;20035;-70
2023/03/10 01:29:11;;;;;;;3.42;2.90;;;;;;;;;;5094373;28;20030;-70
2023/03/10 01:31:56;;;;;;;3.55;2.80;;;;;;;;;;5080711;28;20158;-71
2023/03/10 01:34:42;;;;;;;3.80;3.08;;;;;;;;;;5080048;28;20016;-71
2023/03/10 01:37:27;;;;;;;4.55;3.13;;;;;;;;;;5093859;28;20024;-71
2023/03/10 01:40:15;;;;;;;5.38;3.20;;;;;;;;;;5094367;28;20338;-71
2023/03/10 01:43:19;;;;;;;4.90;3.10;;;;;;;;;;5080323;28;20067;-70
2023/03/10 01:46:24;;;;;;;5.07;3.10;;;;;;;;;;5094003;28;20051;-70
2023/03/10 01:49:23;;;;;;;3.85;3.10;;;;;;;;;;5091154;28;20043;-69
2023/03/10 01:52:15;;;;;;;4.88;3.38;;;;;;;;;;5095246;28;20024;-70
2023/03/10 01:55:04;;;;;;;3.65;3.00;;;;;;;;;;5094616;28;20081;-70
2023/03/10 01:57:54;;;;;;;4.70;3.20;;;;;;;;;;5079925;28;20145;-71
2023/03/10 02:00:40;;;;;;;6.40;3.38;;;;;;;;;;5094571;28;20406;-71
2023/03/10 02:03:28;;;;;;;4.10;3.17;;;;;;;;;;5093280;28;20023;-71
2023/03/10 02:06:15;;;;;;;4.00;3.22;;;;;;;;;;5094472;28;20044;-71
2023/03/10 02:09:02;;;;;;;4.95;2.88;;;;;;;;;;5079293;28;20077;-71
2023/03/10 02:11:48;;;;;;;4.40;3.28;;;;;;;;;;5094470;28;20025;-69
2023/03/10 02:14:34;;;;;;;4.70;3.30;;;;;;;;;;5079729;28;20088;-70
2023/03/10 02:17:21;;;;;;;7.32;3.58;;;;;;;;;;5094033;28;20062;-70
2023/03/10 02:20:13;;;;;;;6.55;3.78;;;;;;;;;;5093673;28;20448;-69
2023/03/10 02:22:58;;;;;;;5.97;4.47;;;;;;;;;;5079706;28;20020;-70
2023/03/10 02:25:50;;;;;;;6.70;4.88;;;;;;;;;;5094648;28;20046;-70
2023/03/10 02:28:35;;;;;;;8.98;5.55;;;;;;;;;;5093691;28;20028;-69
2023/03/10 02:31:21;;;;;;;6.53;5.13;;;;;;;;;;5092785;28;20074;-70
2023/03/10 02:34:07;;;;;;;6.35;4.90;;;;;;;;;;5079398;28;20044;-70
2023/03/10 02:36:53;;;;;;;6.32;4.75;;;;;;;;;;5098030;28;20019;-70
2023/03/10 02:39:38;;;;;;;4.95;4.15;;;;;;;;;;5097293;28;20024;-70
2023/03/10 02:42:27;;;;;;;7.13;4.80;;;;;;;;;;5097272;28;20039;-71
2023/03/10 02:45:13;;;;;;;6.32;5.22;;;;;;;;;;5098129;28;20099;-71
2023/03/10 02:47:58;;;;;;;8.20;5.85;;;;;;;;;;5084083;28;20024;-71
2023/03/10 02:50:46;;;;;;;8.23;5.22;;;;;;;;;;5097762;28;20038;-72
2023/03/10 02:53:31;;;;;;;7.00;4.93;;;;;;;;;;5083124;28;20440;-71
2023/03/10 02:56:17;;;;;;;7.45;4.53;;;;;;;;;;5083550;28;20098;-71
2023/03/10 02:59:03;;;;;;;5.05;3.92;;;;;;;;;;5082281;28;20107;-70
2023/03/10 03:01:49;;;;;;;4.78;3.83;;;;;;;;;;5096313;28;20060;-71
2023/03/10 03:04:35;;;;;;;4.50;3.38;;;;;;;;;;5096443;28;20093;-72
2023/03/10 03:07:20;;;;;;;4.45;3.25;;;;;;;;;;5097078;28;20054;-70
2023/03/10 03:10:06;;;;;;;4.72;3.20;;;;;;;;;;5096557;28;20020;-71
2023/03/10 03:12:51;;;;;;;4.00;2.78;;;;;;;;;;5096541;28;20107;-72
2023/03/10 03:15:37;;;;;;;3.28;2.55;;;;;;;;;;5097352;28;20020;-72
2023/03/10 03:18:23;;;;;;;3.88;3.03;;;;;;;;;;5097140;28;20390;-72
2023/03/10 03:21:10;;;;;;;3.20;2.45;;;;;;;;;;5082425;28;20039;-71
2023/03/10 03:23:56;;;;;;;3.13;2.58;;;;;;;;;;5097115;28;20035;-72
2023/03/10 03:26:41;;;;;;;5.47;3.42;;;;;;;;;;5082836;28;20360;-71
2023/03/10 03:29:27;;;;;;;6.47;4.07;;;;;;;;;;5082073;28;20054;-72
2023/03/10 03:32:13;;;;;;;6.22;4.65;;;;;;;;;;5081185;28;20016;-72
2023/03/10 03:34:58;;;;;;;5.50;4.57;;;;;;;;;;5095994;28;20070;-71
2023/03/10 03:37:44;;;;;;;5.32;4.50;;;;;;;;;;5097101;28;20398;-71
2023/03/10 03:40:32;;;;;;;8.30;7.10;;;;;;;;;;5095960;28;20031;-71
2023/03/10 03:43:17;;;;;;;9.02;7.28;;;;;;;;;;5096996;28;20024;-71
2023/03/10 03:46:03;;;;;;;8.43;7.53;;;;;;;;;;5080825;28;20016;-71
2023/03/10 03:48:49;;;;;;;5.78;4.90;;;;;;;;;;5097670;28;20035;-72
2023/03/10 03:51:35;;;;;;;4.95;3.55;;;;;;;;;;5096373;28;20015;-72
2023/03/10 03:54:20;;;;;;;3.50;3.00;;;;;;;;;;5095852;28;20027;-73
2023/03/10 03:57:06;;;;;;;3.80;3.13;;;;;;;;;;5097498;28;20029;-72
2023/03/10 03:59:52;;;;;;;5.82;2.90;;;;;;;;;;5095636;28;20016;-72
2023/03/10 04:02:38;;;;;;;4.47;3.42;;;;;;;;;;5097012;28;20078;-72
2023/03/10 04:05:23;;;;;;;5.22;3.40;;;;;;;;;;5082666;28;20035;-71
2023/03/10 04:08:09;;;;;;;5.38;4.05;;;;;;;;;;5095147;28;20040;-70
2023/03/10 04:10:55;;;;;;;8.65;6.32;;;;;;;;;;5081655;28;20111;-72
2023/03/10 04:13:42;;;;;;;8.95;7.13;;;;;;;;;;5096116;28;20380;-71
2023/03/10 04:16:27;;;;;;;6.75;5.10;;;;;;;;;;5096932;28;20026;-71
2023/03/10 04:19:13;;;;;;;5.38;4.20;;;;;;;;;;5097139;28;20020;-71
2023/03/10 04:21:59;;;;;;;5.32;3.95;;;;;;;;;;5096039;28;20039;-71
2023/03/10 04:24:44;;;;;;;5.53;4.15;;;;;;;;;;5095721;28;20020;-71
2023/03/10 04:27:30;;;;;;;4.35;3.40;;;;;;;;;;5096529;28;20031;-71
2023/03/10 04:30:15;;;;;;;4.28;3.10;;;;;;;;;;5096022;28;20024;-73
2023/03/10 04:33:01;;;;;;;3.95;3.17;;;;;;;;;;5095448;28;20082;-71
2023/03/10 04:35:47;;;;;;;4.25;3.45;;;;;;;;;;5095445;28;20020;-72
2023/03/10 04:38:33;;;;;;;5.43;3.50;;;;;;;;;;5095917;28;20428;-71
2023/03/10 04:41:18;;;;;;;5.45;3.72;;;;;;;;;;5095188;28;20467;-72
2023/03/10 04:44:04;;;;;;;5.25;4.20;;;;;;;;;;5095713;28;20097;-71
2023/03/10 04:46:50;;;;;;;4.80;4.10;;;;;;;;;;5095895;28;20103;-72
2023/03/10 04:49:37;;;;;;;11.30;7.13;;;;;;;;;;5095165;28;20028;-73
2023/03/10 04:52:22;;;;;;;9.70;7.85;;;;;;;;;;5080588;28;20016;-72
2023/03/10 04:55:08;;;;;;;14.00;10.52;;;;;;;;;;5094713;28;20078;-72
2023/03/10 04:57:54;;;;;;;18.70;14.25;;;;;;;;;;5096019;28;20038;-72
2023/03/10 05:00:39;;;;;;;34.05;20.80;;;;;;;;;;5099612;28;20031;-71
2023/03/10 05:03:25;;;;;;;28.63;21.60;;;;;;;;;;5100716;28;20020;-73
2023/03/10 05:06:11;;;;;;;19.95;15.50;;;;;;;;;;5096273;28;20078;-72
2023/03/10 05:08:57;;;;;;;19.02;12.75;;;;;;;;;;5095143;28;20020;-71
2023/03/10 05:11:43;;;;;;;12.20;8.27;;;;;;;;;;5094691;28;20493;-72
2023/03/10 05:14:29;;;;;;;13.57;9.10;;;;;;;;;;5094559;28;20124;-72
2023/03/10 05:17:14;;;;;;;15.27;11.15;;;;;;;;;;5096159;28;20436;-72
2023/03/10 05:20:00;;;;;;;12.80;7.70;;;;;;;;;;5094949;28;20024;-72
2023/03/10 05:22:45;;;;;;;7.78;5.57;;;;;;;;;;5095363;28;20030;-71
2023/03/10 05:25:31;;;;;;;8.52;4.60;;;;;;;;;;5094713;28;20028;-71
2023/03/10 05:28:16;;;;;;;7.97;4.35;;;;;;;;;;5094883;28;20024;-72
2023/03/10 05:31:13;;;;;;;7.85;4.13;;;;;;;;;;5093641;28;20094;-73
2023/03/10 05:33:58;;;;;;;5.88;4.10;;;;;;;;;;5095189;28;20027;-72
2023/03/10 05:36:44;;;;;;;5.38;4.20;;;;;;;;;;5094592;28;20028;-72
2023/03/10 05:39:29;;;;;;;9.07;4.45;;;;;;;;;;5095146;28;20115;-71
2023/03/10 05:42:15;;;;;;;7.13;4.50;;;;;;;;;;5094556;28;20027;-72
2023/03/10 05:45:01;;;;;;;6.82;4.28;;;;;;;;;;5093571;28;20349;-71
2023/03/10 05:47:46;;;;;;;7.05;3.70;;;;;;;;;;5094140;28;20093;-71
2023/03/10 05:50:32;;;;;;;6.15;3.90;;;;;;;;;;5094063;28;20020;-71
2023/03/10 05:53:17;;;;;;;6.20;4.00;;;;;;;;;;5093773;28;20008;-72
2023/03/10 05:56:04;;;;;;;4.63;3.63;;;;;;;;;;5093942;28;20101;-73
2023/03/10 05:58:50;;;;;;;6.45;4.28;;;;;;;;;;5079927;28;20024;-70
2023/03/10 06:01:36;;;;;;;10.07;6.70;;;;;;;;;;5093434;28;20062;-72
2023/03/10 06:04:21;;;;;;;9.90;5.30;;;;;;;;;;5080218;28;20024;-72
2023/03/10 06:07:07;;;;;;;8.27;4.85;;;;;;;;;;5092856;28;20047;-71
2023/03/10 06:09:53;;;;;;;6.10;4.25;;;;;;;;;;5095628;28;20120;-72
2023/03/10 06:12:39;;;;;;;9.73;5.80;;;;;;;;;;5098291;28;20020;-71
2023/03/10 06:15:24;;;;;;;5.40;4.63;;;;;;;;;;5084515;28;20020;-71
2023/03/10 06:18:10;;;;;;;7.35;4.88;;;;;;;;;;5098729;28;20413;-70
2023/03/10 06:20:56;;;;;;;6.22;4.13;;;;;;;;;;5097954;28;20032;-71
2023/03/10 06:23:41;;;;;;;5.50;3.83;;;;;;;;;;5098918;28;20074;-72
2023/03/10 06:26:27;;;;;;;4.50;3.50;;;;;;;;;;5098425;28;20077;-73
2023/03/10 06:29:12;;;;;;;11.02;5.18;;;;;;;;;;5098593;28;20527;-72
2023/03/10 06:31:58;;;;;;;6.60;4.13;;;;;;;;;;5097142;28;20078;-72
2023/03/10 06:34:44;;;;;;;7.70;4.47;;;;;;;;;;5083153;28;20440;-72
2023/03/10 06:37:29;;;;;;;9.05;4.97;;;;;;;;;;5069961;28;20048;-72
2023/03/10 06:40:15;;;;;;;7.57;5.00;;;;;;;;;;5097241;28;20099;-73
2023/03/10 06:43:00;;;;;;;6.32;4.07;;;;;;;;;;5099397;28;20376;-73
2023/03/10 06:45:46;;;;;;;5.97;3.50;;;;;;;;;;5097335;28;20107;-73
2023/03/10 06:48:32;;;;;;;4.50;3.60;;;;;;;;;;5097583;28;20027;-72
2023/03/10 06:51:19;;;;;;;4.70;3.42;;;;;;;;;;5097494;28;20103;-72
2023/03/10 06:54:04;;;;;;;4.85;3.33;;;;;;;;;;5084183;28;20107;-72
2023/03/10 06:56:50;;;;;;;5.20;3.65;;;;;;;;;;5098073;28;20103;-72
2023/03/10 06:59:36;;;;;;;4.85;2.90;;;;;;;;;;5083164;28;20093;-73
2023/03/10 07:02:22;;;;;;;2.33;2.00;;;;;;;;;;5096820;28;20044;-73
2023/03/10 07:05:09;;;;;;;3.70;2.40;;;;;;;;;;5082816;28;20031;-72
2023/03/10 07:07:55;;;;;;;4.38;2.13;;;;;;;;;;5083320;28;20046;-73
2023/03/10 07:10:40;;;;;;;4.30;2.20;;;;;;;;;;5096876;28;20020;-72
2023/03/10 07:13:26;;;;;;;3.03;2.38;;;;;;;;;;5082079;28;20432;-73
2023/03/10 07:16:12;;;;;;;2.65;1.90;;;;;;;;;;5083160;28;20051;-72
2023/03/10 07:18:57;;;;;;;3.83;2.78;;;;;;;;;;5096807;28;20055;-73
2023/03/10 07:21:43;;;;;;;2.83;2.40;;;;;;;;;;5096064;28;20023;-72
2023/03/10 07:24:28;;;;;;;4.05;2.40;;;;;;;;;;5096325;28;20016;-72
2023/03/10 07:27:14;;;;;;;3.53;2.45;;;;;;;;;;5082117;28;20119;-73
2023/03/10 07:29:59;;;;;;;2.55;2.00;;;;;;;;;;5096646;28;20029;-72
2023/03/10 07:32:45;;;;;;;5.63;3.95;;;;;;;;;;5096600;28;20016;-71
2023/03/10 07:35:31;;;;;;;3.92;2.03;;;;;;;;;;5082499;28;20027;-72
2023/03/10 07:38:16;;;;;;;2.60;2.20;;;;;;;;;;5083387;28;20012;-72
2023/03/10 07:41:09;;;;;;;3.05;2.03;;;;;;;;;;5083067;28;20447;-72
2023/03/10 07:43:54;;;;;;;2.88;2.03;;;;;;;;;;5096214;28;20028;-71
2023/03/10 07:46:40;;;;;;;2.17;1.75;;;;;;;;;;5096986;28;20103;-71
2023/03/10 07:49:25;;;;;;;2.90;2.33;;;;;;;;;;5095855;28;20039;-71
2023/03/10 07:52:12;;;;;;;4.43;3.58;;;;;;;;;;5096478;28;20024;-72
2023/03/10 07:54:57;;;;;;;5.70;4.25;;;;;;;;;;5096758;28;20042;-73
2023/03/10 07:57:43;;;;;;;11.85;7.18;;;;;;;;;;5096361;28;20395;-72
2023/03/10 08:00:29;;;;;;;4.88;3.28;;;;;;;;;;5096138;28;20035;-71
2023/03/10 08:03:14;;;;;;;7.55;4.00;;;;;;;;;;5095652;28;20028;-73
2023/03/10 08:06:01;;;;;;;3.22;2.50;;;;;;;;;;5096437;28;20040;-71
2023/03/10 08:08:47;;;;;;;5.78;3.70;;;;;;;;;;5095996;28;20028;-72
2023/03/10 08:11:32;;;;;;;3.95;2.80;;;;;;;;;;5095536;28;20020;-72
2023/03/10 08:14:18;;;;;;;3.80;2.97;;;;;;;;;;5096023;28;20060;-72
2023/03/10 08:17:04;;;;;;;3.70;2.70;;;;;;;;;;5096131;28;20035;-72
2023/03/10 08:19:49;;;;;;;9.32;6.32;;;;;;;;;;5095345;28;20028;-72
2023/03/10 08:22:35;;;;;;;6.45;3.78;;;;;;;;;;5095150;28;20448;-71
2023/03/10 08:25:20;;;;;;;3.58;2.22;;;;;;;;;;5095646;28;20043;-72
2023/03/10 08:28:06;;;;;;;6.22;4.65;;;;;;;;;;5082192;28;20028;-72
2023/03/10 08:30:51;;;;;;;4.47;3.17;;;;;;;;;;5082087;28;20082;-72
2023/03/10 08:33:37;;;;;;;4.38;3.03;;;;;;;;;;5095076;28;20059;-72
2023/03/10 08:36:24;;;;;;;7.55;3.63;;;;;;;;;;5081927;28;20016;-73
2023/03/10 08:39:10;;;;;;;3.78;3.05;;;;;;;;;;5096101;28;20062;-72
2023/03/10 08:41:56;;;;;;;4.90;3.72;;;;;;;;;;5096089;28;20352;-72
2023/03/10 08:44:41;;;;;;;7.03;3.60;;;;;;;;;;5095594;28;20039;-71
2023/03/10 08:47:27;;;;;;;3.15;2.40;;;;;;;;;;5095706;28;20433;-72
2023/03/10 08:50:13;;;;;;;7.57;3.58;;;;;;;;;;5095532;28;20056;-72
2023/03/10 08:52:58;;;;;;;4.18;3.05;;;;;;;;;;5096561;28;20054;-73
2023/03/10 08:55:44;;;;;;;3.75;2.65;;;;;;;;;;5081573;28;20433;-72
2023/03/10 08:58:30;;;;;;;4.43;2.80;;;;;;;;;;5080701;28;20024;-72
2023/03/10 09:01:16;;;;;;;5.95;3.10;;;;;;;;;;5095076;28;20062;-73
2023/03/10 09:04:03;;;;;;;5.65;3.60;;;;;;;;;;5081666;28;20360;-74
2023/03/10 09:06:48;;;;;;;4.95;2.70;;;;;;;;;;5081006;28;20533;-72
2023/03/10 09:09:34;;;;;;;6.65;2.90;;;;;;;;;;5081508;28;20024;-72
2023/03/10 09:12:21;;;;;;;4.47;2.63;;;;;;;;;;5095395;28;20048;-73
2023/03/10 09:15:06;;;;;;;3.47;2.40;;;;;;;;;;5095526;28;20020;-73
2023/03/10 09:17:52;;;;;;;3.10;2.10;;;;;;;;;;5096299;28;20023;-72
2023/03/10 09:20:39;;;;;;;6.72;2.67;;;;;;;;;;5080293;28;20080;-72
2023/03/10 09:23:25;;;;;;;6.32;2.63;;;;;;;;;;5080689;28;20024;-73
2023/03/10 09:26:10;;;;;;;3.17;2.42;;;;;;;;;;5081188;28;20020;-73
2023/03/10 09:28:56;;;;;;;11.15;3.30;;;;;;;;;;5094488;28;20016;-72
2023/03/10 09:31:42;;;;;;;5.47;2.90;;;;;;;;;;5094189;28;20500;-72
2023/03/10 09:34:28;;;;;;;5.20;2.53;;;;;;;;;;5094607;28;20024;-74
2023/03/10 09:37:14;;;;;;;7.13;2.70;;;;;;;;;;5080731;28;20024;-72
2023/03/10 09:40:00;;;;;;;10.85;3.17;;;;;;;;;;5094141;28;20028;-72
2023/03/10 09:43:04;;;;;;;4.25;3.22;;;;;;;;;;5094528;28;20051;-73
2023/03/10 09:46:03;;;;;;;3.92;2.30;;;;;;;;;;5093246;28;20024;-74
2023/03/10 09:48:59;;;;;;;4.63;2.65;;;;;;;;;;5094687;28;20020;-72
2023/03/10 09:51:47;;;;;;;3.67;2.58;;;;;;;;;;5094462;28;20028;-73
2023/03/10 09:54:32;;;;;;;3.92;2.58;;;;;;;;;;5094319;28;20024;-72
2023/03/10 09:57:20;;;;;;;3.10;2.15;;;;;;;;;;5094586;28;20047;-73
2023/03/10 10:00:08;;;;;;;19.17;3.05;;;;;;;;;;5096042;28;20073;-74
2023/03/10 10:03:00;;;;;;;3.17;2.03;;;;;;;;;;5094439;28;20098;-72
2023/03/10 10:05:46;;;;;;;2.90;1.80;;;;;;;;;;5094731;28;20077;-73
2023/03/10 10:08:40;;;;;;;13.05;2.67;;;;;;;;;;5094796;28;20032;-74
2023/03/10 10:11:25;;;;;;;3.63;1.67;;;;;;;;;;5079992;28;20043;-73
2023/03/10 10:14:26;;;;;;;4.47;1.83;;;;;;;;;;5090610;28;20444;-72
2023/03/10 10:17:21;;;;;;;5.10;1.88;;;;;;;;;;5092081;28;20024;-73
2023/03/10 10:20:18;;;;;;;3.80;1.75;;;;;;;;;;5092616;28;20035;-73
2023/03/10 10:23:05;;;;;;;4.22;1.90;;;;;;;;;;5093390;28;20436;-73
2023/03/10 10:25:50;;;;;;;2.75;1.83;;;;;;;;;;5092477;28;20024;-74
2023/03/10 10:28:47;;;;;;;3.55;2.00;;;;;;;;;;5093356;28;20020;-72
2023/03/10 10:31:33;;;;;;;4.35;2.22;;;;;;;;;;5093746;28;20028;-73
2023/03/10 10:34:20;;;;;;;4.72;2.20;;;;;;;;;;5093261;28;20470;-74
2023/03/10 10:37:27;;;;;;;5.05;2.05;;;;;;;;;;5092966;28;20035;-73
2023/03/10 10:40:24;;;;;;;9.55;2.38;;;;;;;;;;5093149;28;20444;-72
2023/03/10 10:43:14;;;;;;;4.28;1.98;;;;;;;;;;5093398;28;20036;-75
2023/03/10 10:46:05;;;;;;;4.78;1.90;;;;;;;;;;5092764;28;20114;-76
2023/03/10 10:49:00;;;;;;;7.25;1.80;;;;;;;;;;5092900;28;20016;-74
2023/03/10 10:51:55;;;;;;;6.30;1.70;;;;;;;;;;5092139;28;20108;-73
2023/03/10 10:54:40;;;;;;;4.53;1.60;;;;;;;;;;5092697;28;20449;-72
2023/03/10 10:57:34;;;;;;;4.88;1.52;;;;;;;;;;5095684;28;20021;-72
2023/03/10 11:00:29;;;;;;;5.43;1.30;;;;;;;;;;5096621;28;20028;-73
2023/03/10 11:03:35;;;;;;;3.33;1.20;;;;;;;;;;5097112;28;20024;-72
2023/03/10 11:06:28;;;;;;;7.03;1.80;;;;;;;;;;5103688;28;20130;-73
2023/03/10 11:09:18;;;;;;;18.42;2.67;;;;;;;;;;5102275;28;20102;-73
2023/03/10 11:12:18;;;;;;;7.18;1.70;;;;;;;;;;5116376;28;20034;-73
2023/03/10 11:15:07;;;;;;;5.10;1.88;;;;;;;;;;5103194;28;20027;-72
2023/03/10 11:17:59;;;;;;;14.00;8.00;;;;;;;;;;5119344;28;20048;-72
2023/03/10 11:20:48;;;;;;;4.55;2.67;;;;;;;;;;5118703;28;20098;-73
2023/03/10 11:23:39;;;;;;;7.35;1.73;;;;;;;;;;5118396;28;20448;-72
2023/03/10 11:26:43;;;;;;;3.85;1.70;;;;;;;;;;5117707;28;20028;-72
2023/03/10 11:29:35;;;;;;;3.75;1.73;;;;;;;;;;5117299;28;20027;-71
2023/03/10 11:32:32;;;;;;;5.97;1.30;;;;;;;;;;5102934;28;20400;-72
2023/03/10 11:35:42;;;;;;;4.72;1.70;;;;;;;;;;5118675;28;20074;-73
2023/03/10 11:38:39;;;;;;;3.05;1.70;;;;;;;;;;5119257;28;20019;-72
2023/03/10 11:41:26;;;;;;;2.65;1.52;;;;;;;;;;5116522;28;20028;-72
2023/03/10 11:44:12;;;;;;;3.85;1.50;;;;;;;;;;5116201;28;20035;-72
2023/03/10 11:47:04;;;;;;;4.13;1.60;;;;;;;;;;5117864;28;20106;-70
2023/03/10 11:49:53;;;;;;;7.63;2.95;;;;;;;;;;5116523;28;20042;-72
2023/03/10 11:52:39;;;;;;;4.60;1.98;;;;;;;;;;5116999;28;20095;-72
2023/03/10 11:55:25;;;;;;;5.53;1.75;;;;;;;;;;5102173;28;20017;-72
2023/03/10 11:58:17;;;;;;;1.75;1.40;;;;;;;;;;5076044;28;20056;-72
2023/03/10 12:01:04;;;;;;;12.60;2.13;;;;;;;;;;5060700;28;20368;-74
2023/03/10 12:03:58;;;;;;;12.57;1.98;;;;;;;;;;5094475;28;20077;-72
2023/03/10 12:07:00;;;;;;;3.38;1.30;;;;;;;;;;5106068;28;20066;-72
2023/03/10 12:09:46;;;;;;;3.60;1.67;;;;;;;;;;5116534;28;20024;-72
2023/03/10 12:12:37;;;;;;;6.30;2.47;;;;;;;;;;5115771;28;20031;-72
2023/03/10 12:15:24;;;;;;;1.65;1.40;;;;;;;;;;5115989;28;20020;-72
2023/03/10 12:18:10;;;;;;;2.83;1.40;;;;;;;;;;5116002;28;20031;-76
2023/03/10 12:21:12;;;;;;;1.90;1.35;;;;;;;;;;5116198;28;20073;-73
2023/03/10 12:23:59;;;;;;;3.75;1.42;;;;;;;;;;5101241;28;20027;-72
2023/03/10 12:26:45;;;;;;;33.33;3.45;;;;;;;;;;5115954;28;20023;-72
2023/03/10 12:29:32;;;;;;;6.15;1.50;;;;;;;;;;5115073;28;20359;-72
2023/03/10 12:32:36;;;;;;;6.22;2.20;;;;;;;;;;5116199;28;20015;-72
2023/03/10 12:35:28;;;;;;;6.15;2.67;;;;;;;;;;5117292;28;20058;-72
2023/03/10 12:38:32;;;;;;;2.20;1.42;;;;;;;;;;5116226;28;20026;-72
2023/03/10 12:41:27;;;;;;;7.30;1.50;;;;;;;;;;5116821;27;20030;-71
2023/03/10 12:44:21;;;;;;;10.38;1.83;;;;;;;;;;5114712;28;20023;-71
2023/03/10 12:47:07;;;;;;;3.28;1.60;;;;;;;;;;5114877;28;20015;-71
2023/03/10 12:50:11;;;;;;;4.35;1.70;;;;;;;;;;5114513;28;20058;-72
2023/03/10 12:53:06;;;;;;;4.57;2.28;;;;;;;;;;5116376;27;20027;-73
2023/03/10 12:56:10;;;;;;;10.93;5.95;;;;;;;;;;5115578;28;20011;-72
2023/03/10 12:59:07;;;;;;;4.65;1.60;;;;;;;;;;5076374;28;20104;-71
2023/03/10 13:01:56;;;;;;;4.43;1.40;;;;;;;;;;5082103;28;20118;-73
2023/03/10 13:04:42;;;;;;;4.00;1.33;;;;;;;;;;5095141;28;20027;-72
2023/03/10 13:07:28;;;;;;;5.30;2.65;;;;;;;;;;5094610;28;20051;-73
2023/03/10 13:10:17;;;;;;;4.13;2.60;;;;;;;;;;5079806;28;20095;-73
2023/03/10 13:13:07;;;;;;;5.30;1.88;;;;;;;;;;5094077;28;20012;-72
2023/03/10 13:16:00;;;;;;;5.88;3.10;;;;;;;;;;5094625;28;20031;-73
2023/03/10 13:18:47;;;;;;;5.95;3.20;;;;;;;;;;5094346;28;20099;-73
2023/03/10 13:21:34;;;;;;;6.57;1.75;;;;;;;;;;5094599;28;20024;-73
2023/03/10 13:24:25;;;;;;;5.70;1.73;;;;;;;;;;5093856;28;20044;-72
2023/03/10 13:27:13;;;;;;;9.73;2.78;;;;;;;;;;5092001;28;20058;-73
2023/03/10 13:29:58;;;;;;;5.35;1.92;;;;;;;;;;5094563;28;20432;-73
2023/03/10 13:32:51;;;;;;;5.30;1.95;;;;;;;;;;5093468;28;20043;-73
2023/03/10 13:35:37;;;;;;;10.07;2.83;;;;;;;;;;5095260;28;20016;-73
2023/03/10 13:38:23;;;;;;;6.43;3.85;;;;;;;;;;5098409;28;20094;-73
2023/03/10 13:41:09;;;;;;;4.72;2.13;;;;;;;;;;5114866;28;20043;-73
2023/03/10 13:43:55;;;;;;;4.75;1.73;;;;;;;;;;5100992;28;20471;-73
2023/03/10 13:46:45;;;;;;;11.30;2.03;;;;;;;;;;5093895;28;20488;-74
2023/03/10 13:49:31;;;;;;;6.18;1.92;;;;;;;;;;5094539;28;20364;-71
2023/03/10 13:52:24;;;;;;;13.82;2.20;;;;;;;;;;5094832;28;20039;-72
2023/03/10 13:55:11;;;;;;;7.45;2.08;;;;;;;;;;5095757;28;20031;-71
2023/03/10 13:57:58;;;;;;;7.40;1.98;;;;;;;;;;5093765;28;20386;-72
2023/03/10 14:00:49;;;;;;;7.93;2.40;;;;;;;;;;5093358;28;20074;-74
2023/03/10 14:03:34;;;;;;;8.10;2.80;;;;;;;;;;5093066;28;20107;-76
2023/03/10 14:06:21;;;;;;;13.13;3.67;;;;;;;;;;5078804;28;20048;-75
2023/03/10 14:09:11;;;;;;;6.55;2.20;;;;;;;;;;5079318;28;20028;-72
2023/03/10 14:11:56;;;;;;;7.47;2.55;;;;;;;;;;5093246;28;20209;-75
2023/03/10 14:14:43;;;;;;;7.00;2.53;;;;;;;;;;5092873;28;20077;-71
2023/03/10 14:17:30;;;;;;;6.07;2.22;;;;;;;;;;5093382;28;20101;-71
2023/03/10 14:20:24;;;;;;;8.20;3.22;;;;;;;;;;5093909;28;20403;-72
2023/03/10 14:23:22;;;;;;;8.07;2.65;;;;;;;;;;5093653;28;20121;-71
2023/03/10 14:26:12;;;;;;;9.15;2.53;;;;;;;;;;5079759;28;20024;-71
2023/03/10 14:29:02;;;;;;;12.32;2.72;;;;;;;;;;5093355;28;20026;-72
2023/03/10 14:31:50;;;;;;;4.47;2.08;;;;;;;;;;5081212;28;20324;-72
2023/03/10 14:34:36;;;;;;;10.85;2.78;;;;;;;;;;5097538;28;20132;-73
2023/03/10 14:37:22;;;;;;;11.70;2.97;;;;;;;;;;5097046;28;20012;-71
2023/03/10 14:40:09;;;;;;;8.38;2.80;;;;;;;;;;5097061;28;20105;-73
2023/03/10 14:42:57;;;;;;;9.60;3.05;;;;;;;;;;5097596;28;20038;-73
2023/03/10 14:45:44;;;;;;;12.85;3.50;;;;;;;;;;5096315;28;20024;-71
2023/03/10 14:48:32;;;;;;;14.80;3.17;;;;;;;;;;5097587;28;20028;-72
2023/03/10 14:51:19;;;;;;;17.90;3.45;;;;;;;;;;5096899;28;20028;-71
2023/03/10 14:54:09;;;;;;;6.47;2.80;;;;;;;;;;5083358;28;20081;-72
2023/03/10 14:56:58;;;;;;;10.10;2.97;;;;;;;;;;5082795;28;20012;-72
2023/03/10 14:59:44;;;;;;;10.15;3.10;;;;;;;;;;5097159;28;20130;-72
2023/03/10 15:02:30;;;;;;;7.75;3.55;;;;;;;;;;5095708;28;20023;-71
2023/03/10 15:05:16;;;;;;;20.13;4.82;;;;;;;;;;5095778;28;20496;-71
2023/03/10 15:08:02;;;;;;;9.05;3.17;;;;;;;;;;5096086;28;20048;-71
2023/03/10 15:10:49;;;;;;;11.85;3.25;;;;;;;;;;5096189;28;20024;-71
2023/03/10 15:13:36;;;;;;;7.75;3.47;;;;;;;;;;5096387;28;20024;-70
2023/03/10 15:16:21;;;;;;;6.35;3.15;;;;;;;;;;5095557;28;20020;-72
2023/03/10 15:19:11;;;;;;;5.40;2.90;;;;;;;;;;5095084;28;20166;-72
2023/03/10 15:21:56;;;;;;;5.07;3.20;;;;;;;;;;5095560;28;20020;-71
2023/03/10 15:24:42;;;;;;;8.98;3.00;;;;;;;;;;5096141;28;20126;-71
2023/03/10 15:27:28;;;;;;;8.45;3.20;;;;;;;;;;5095361;28;20028;-70
2023/03/10 15:30:33;;;;;;;9.90;3.05;;;;;;;;;;5082657;28;20034;-72
2023/03/10 15:33:18;;;;;;;12.05;3.78;;;;;;;;;;5096217;28;20095;-72
2023/03/10 15:36:05;;;;;;;15.30;4.00;;;;;;;;;;5095945;28;20020;-72
2023/03/10 15:38:51;;;;;;;7.15;3.95;;;;;;;;;;5096094;28;20099;-72
2023/03/10 15:41:37;;;;;;;8.10;3.90;;;;;;;;;;5095740;28;20032;-70
2023/03/10 15:44:23;;;;;;;8.95;4.60;;;;;;;;;;5095940;28;20034;-70
2023/03/10 15:47:08;;;;;;;7.60;3.95;;;;;;;;;;5082467;28;20028;-71
2023/03/10 15:49:54;;;;;;;6.43;3.90;;;;;;;;;;5096381;28;20012;-72
2023/03/10 15:52:44;;;;;;;9.18;4.38;;;;;;;;;;5095944;28;20012;-72
2023/03/10 15:55:29;;;;;;;6.22;3.90;;;;;;;;;;5095746;28;20474;-71
2023/03/10 15:58:15;;;;;;;9.43;4.05;;;;;;;;;;5096216;28;20020;-71
2023/03/10 16:01:07;;;;;;;7.18;4.30;;;;;;;;;;5095906;28;20110;-72
2023/03/10 16:03:53;;;;;;;15.52;5.35;;;;;;;;;;5095128;28;20016;-71
2023/03/10 16:06:38;;;;;;;6.50;3.92;;;;;;;;;;5094596;28;20071;-72
2023/03/10 16:09:24;;;;;;;9.07;3.85;;;;;;;;;;5095510;28;20020;-72
2023/03/10 16:12:09;;;;;;;9.70;3.97;;;;;;;;;;5082338;28;20457;-71
2023/03/10 16:14:55;;;;;;;10.05;6.10;;;;;;;;;;5095675;28;20024;-69
2023/03/10 16:17:42;;;;;;;14.88;8.38;;;;;;;;;;5096007;28;20012;-74
2023/03/10 16:20:28;;;;;;;12.00;4.70;;;;;;;;;;5095682;28;20024;-71
2023/03/10 16:23:14;;;;;;;7.57;4.00;;;;;;;;;;5095335;28;20024;-71
2023/03/10 16:26:19;;;;;;;7.22;4.20;;;;;;;;;;5097345;28;20020;-71
2023/03/10 16:29:05;;;;;;;9.40;5.22;;;;;;;;;;5095329;28;20019;-71
2023/03/10 16:31:51;;;;;;;6.38;4.72;;;;;;;;;;5095214;28;20015;-71
2023/03/10 16:34:36;;;;;;;8.40;5.13;;;;;;;;;;5081945;28;20019;-74
2023/03/10 16:37:24;;;;;;;8.88;5.75;;;;;;;;;;5080977;28;20027;-73
2023/03/10 16:40:10;;;;;;;9.32;5.07;;;;;;;;;;5095339;28;20372;-72
2023/03/10 16:42:55;;;;;;;9.57;5.25;;;;;;;;;;5080154;28;20427;-71